sensor_id;sensor_type;location;lat;lon;timestamp;temperature;humidity
27707;DHT22;36332;51.384;0.040;2023-11-21T00:00:08;11.20;99.90
27707;DHT22;36332;51.384;0.040;2023-11-21T00:02:40;11.20;99.90
27707;DHT22;36332;51.384;0.040;2023-11-21T00:05:12;11.20;99.90
27707;DHT22;36332;51.384;0.040;2023-11-21T00:07:42;11.20;99.90
27707;DHT22;36332;51.384;0.040;2023-11-21T00:10:11;11.20;99.90
27707;DHT22;36332;51.384;0.040;2023-11-21T00:12:42;11.20;99.90
27707;DHT22;36332;51.384;0.040;2023-11-21T00:15:10;11.20;99.90
27707;DHT22;36332;51.384;0.040;2023-11-21T00:17:40;11.20;99.90
27707;DHT22;36332;51.384;0.040;2023-11-21T00:20:08;11.20;99.90
27707;DHT22;36332;51.384;0.040;2023-11-21T00:22:40;11.20;99.90
27707;DHT22;36332;51.384;0.040;2023-11-21T00:25:08;11.20;99.90
27707;DHT22;36332;51.384;0.040;2023-11-21T00:27:36;11.20;99.90
27707;DHT22;36332;51.384;0.040;2023-11-21T00:30:05;11.20;99.90
27707;DHT22;36332;51.384;0.040;2023-11-21T00:32:35;11.20;99.90
27707;DHT22;36332;51.384;0.040;2023-11-21T00:35:04;11.30;99.90
27707;DHT22;36332;51.384;0.040;2023-11-21T00:37:32;11.20;99.90
27707;DHT22;36332;51.384;0.040;2023-11-21T00:39:59;11.20;99.90
27707;DHT22;36332;51.384;0.040;2023-11-21T00:42:30;11.30;99.90
27707;DHT22;36332;51.384;0.040;2023-11-21T00:44:58;11.20;99.90
27707;DHT22;36332;51.384;0.040;2023-11-21T00:47:25;11.20;99.90
27707;DHT22;36332;51.384;0.040;2023-11-21T00:49:53;11.20;99.90
27707;DHT22;36332;51.384;0.040;2023-11-21T00:52:21;11.20;99.90
27707;DHT22;36332;51.384;0.040;2023-11-21T00:54:49;11.20;99.90
27707;DHT22;36332;51.384;0.040;2023-11-21T00:57:16;11.20;99.90
27707;DHT22;36332;51.384;0.040;2023-11-21T00:59:44;11.20;99.90
27707;DHT22;36332;51.384;0.040;2023-11-21T01:02:12;11.20;99.90
27707;DHT22;36332;51.384;0.040;2023-11-21T01:04:39;11.20;99.90
27707;DHT22;36332;51.384;0.040;2023-11-21T01:07:07;11.20;99.90
27707;DHT22;36332;51.384;0.040;2023-11-21T01:09:35;11.20;99.90
27707;DHT22;36332;51.384;0.040;2023-11-21T01:12:03;11.20;99.90
27707;DHT22;36332;51.384;0.040;2023-11-21T01:14:32;11.20;99.90
27707;DHT22;36332;51.384;0.040;2023-11-21T01:17:00;11.20;99.90
27707;DHT22;36332;51.384;0.040;2023-11-21T01:19:28;11.20;99.90
27707;DHT22;36332;51.384;0.040;2023-11-21T01:21:57;11.20;99.90
27707;DHT22;36332;51.384;0.040;2023-11-21T01:24:25;11.30;99.90
27707;DHT22;36332;51.384;0.040;2023-11-21T01:26:53;11.30;99.90
27707;DHT22;36332;51.384;0.040;2023-11-21T01:29:20;11.20;99.90
27707;DHT22;36332;51.384;0.040;2023-11-21T01:31:49;11.20;99.90
27707;DHT22;36332;51.384;0.040;2023-11-21T01:34:16;11.20;99.90
27707;DHT22;36332;51.384;0.040;2023-11-21T01:36:46;11.20;99.90
27707;DHT22;36332;51.384;0.040;2023-11-21T01:39:13;11.20;99.90
27707;DHT22;36332;51.384;0.040;2023-11-21T01:41:43;11.30;99.90
27707;DHT22;36332;51.384;0.040;2023-11-21T01:44:11;11.30;99.90
27707;DHT22;36332;51.384;0.040;2023-11-21T01:46:40;11.30;99.90
27707;DHT22;36332;51.384;0.040;2023-11-21T01:49:10;11.30;99.90
27707;DHT22;36332;51.384;0.040;2023-11-21T01:51:43;11.30;99.90
27707;DHT22;36332;51.384;0.040;2023-11-21T01:54:14;11.40;99.90
27707;DHT22;36332;51.384;0.040;2023-11-21T01:56:47;11.30;99.90
27707;DHT22;36332;51.384;0.040;2023-11-21T01:59:18;11.30;99.90
27707;DHT22;36332;51.384;0.040;2023-11-21T02:01:47;11.30;99.90
27707;DHT22;36332;51.384;0.040;2023-11-21T02:04:15;11.30;99.90
27707;DHT22;36332;51.384;0.040;2023-11-21T02:06:43;11.30;99.90
27707;DHT22;36332;51.384;0.040;2023-11-21T02:09:12;11.30;99.90
27707;DHT22;36332;51.384;0.040;2023-11-21T02:11:42;11.30;99.90
27707;DHT22;36332;51.384;0.040;2023-11-21T02:14:11;11.30;99.90
27707;DHT22;36332;51.384;0.040;2023-11-21T02:16:41;11.90;99.90
27707;DHT22;36332;51.384;0.040;2023-11-21T02:19:10;11.30;99.90
27707;DHT22;36332;51.384;0.040;2023-11-21T02:21:42;11.30;99.90
27707;DHT22;36332;51.384;0.040;2023-11-21T02:24:11;11.30;99.90
27707;DHT22;36332;51.384;0.040;2023-11-21T02:26:38;11.30;99.90
27707;DHT22;36332;51.384;0.040;2023-11-21T02:29:06;11.30;99.90
27707;DHT22;36332;51.384;0.040;2023-11-21T02:31:38;11.30;99.90
27707;DHT22;36332;51.384;0.040;2023-11-21T02:34:16;11.40;99.90
27707;DHT22;36332;51.384;0.040;2023-11-21T02:36:44;11.30;99.90
27707;DHT22;36332;51.384;0.040;2023-11-21T02:39:12;11.30;99.90
27707;DHT22;36332;51.384;0.040;2023-11-21T02:41:41;11.30;99.90
27707;DHT22;36332;51.384;0.040;2023-11-21T02:44:09;11.30;99.90
27707;DHT22;36332;51.384;0.040;2023-11-21T02:46:37;11.30;99.90
27707;DHT22;36332;51.384;0.040;2023-11-21T02:49:07;11.30;99.90
27707;DHT22;36332;51.384;0.040;2023-11-21T02:51:34;11.30;99.90
27707;DHT22;36332;51.384;0.040;2023-11-21T02:54:02;11.30;99.90
27707;DHT22;36332;51.384;0.040;2023-11-21T02:56:34;11.40;99.90
27707;DHT22;36332;51.384;0.040;2023-11-21T02:59:03;11.40;99.90
27707;DHT22;36332;51.384;0.040;2023-11-21T03:01:30;11.30;99.90
27707;DHT22;36332;51.384;0.040;2023-11-21T03:03:58;11.40;99.90
27707;DHT22;36332;51.384;0.040;2023-11-21T03:06:27;11.40;99.90
27707;DHT22;36332;51.384;0.040;2023-11-21T03:08:55;11.40;99.90
27707;DHT22;36332;51.384;0.040;2023-11-21T03:11:22;11.40;99.90
27707;DHT22;36332;51.384;0.040;2023-11-21T03:13:50;11.30;99.90
27707;DHT22;36332;51.384;0.040;2023-11-21T03:16:18;11.40;99.90
27707;DHT22;36332;51.384;0.040;2023-11-21T03:18:47;11.40;99.90
27707;DHT22;36332;51.384;0.040;2023-11-21T03:21:14;11.40;99.90
27707;DHT22;36332;51.384;0.040;2023-11-21T03:23:42;11.30;99.90
27707;DHT22;36332;51.384;0.040;2023-11-21T03:26:12;11.40;99.90
27707;DHT22;36332;51.384;0.040;2023-11-21T03:28:40;11.40;99.90
27707;DHT22;36332;51.384;0.040;2023-11-21T03:31:08;11.40;99.90
27707;DHT22;36332;51.384;0.040;2023-11-21T03:33:38;11.30;99.90
27707;DHT22;36332;51.384;0.040;2023-11-21T03:36:06;11.30;99.90
27707;DHT22;36332;51.384;0.040;2023-11-21T03:38:36;11.30;99.90
27707;DHT22;36332;51.384;0.040;2023-11-21T03:41:04;11.30;99.90
27707;DHT22;36332;51.384;0.040;2023-11-21T03:43:32;11.30;99.90
27707;DHT22;36332;51.384;0.040;2023-11-21T03:46:00;11.30;99.90
27707;DHT22;36332;51.384;0.040;2023-11-21T03:48:27;11.30;99.90
27707;DHT22;36332;51.384;0.040;2023-11-21T03:50:55;11.30;99.90
27707;DHT22;36332;51.384;0.040;2023-11-21T03:53:23;11.20;99.90
27707;DHT22;36332;51.384;0.040;2023-11-21T03:55:50;11.20;99.90
27707;DHT22;36332;51.384;0.040;2023-11-21T03:58:18;11.20;99.90
27707;DHT22;36332;51.384;0.040;2023-11-21T04:00:47;11.20;99.90
27707;DHT22;36332;51.384;0.040;2023-11-21T04:03:16;11.10;99.90
27707;DHT22;36332;51.384;0.040;2023-11-21T04:05:43;11.10;99.90
27707;DHT22;36332;51.384;0.040;2023-11-21T04:08:13;11.10;99.90
27707;DHT22;36332;51.384;0.040;2023-11-21T04:10:40;11.10;99.90
27707;DHT22;36332;51.384;0.040;2023-11-21T04:13:09;11.00;99.90
27707;DHT22;36332;51.384;0.040;2023-11-21T04:15:37;11.00;99.90
27707;DHT22;36332;51.384;0.040;2023-11-21T04:18:05;11.00;99.90
27707;DHT22;36332;51.384;0.040;2023-11-21T04:20:33;11.00;99.90
27707;DHT22;36332;51.384;0.040;2023-11-21T04:23:00;11.00;99.90
27707;DHT22;36332;51.384;0.040;2023-11-21T04:25:27;11.10;99.90
27707;DHT22;36332;51.384;0.040;2023-11-21T04:27:55;11.00;99.90
27707;DHT22;36332;51.384;0.040;2023-11-21T04:30:23;11.00;99.90
27707;DHT22;36332;51.384;0.040;2023-11-21T04:32:50;11.00;99.90
27707;DHT22;36332;51.384;0.040;2023-11-21T04:35:18;11.00;99.90
27707;DHT22;36332;51.384;0.040;2023-11-21T04:37:46;11.00;99.90
27707;DHT22;36332;51.384;0.040;2023-11-21T04:40:15;11.00;99.90
27707;DHT22;36332;51.384;0.040;2023-11-21T04:42:42;10.80;99.90
27707;DHT22;36332;51.384;0.040;2023-11-21T04:47:40;11.00;99.90
27707;DHT22;36332;51.384;0.040;2023-11-21T04:50:08;10.90;99.90
27707;DHT22;36332;51.384;0.040;2023-11-21T04:52:36;10.90;99.90
27707;DHT22;36332;51.384;0.040;2023-11-21T04:55:04;10.90;99.90
27707;DHT22;36332;51.384;0.040;2023-11-21T04:57:33;10.90;99.90
27707;DHT22;36332;51.384;0.040;2023-11-21T05:00:01;10.90;99.90
27707;DHT22;36332;51.384;0.040;2023-11-21T05:02:29;11.00;99.90
27707;DHT22;36332;51.384;0.040;2023-11-21T05:05:02;10.90;99.90
27707;DHT22;36332;51.384;0.040;2023-11-21T05:07:34;10.90;99.90
27707;DHT22;36332;51.384;0.040;2023-11-21T05:10:06;10.90;99.90
27707;DHT22;36332;51.384;0.040;2023-11-21T05:12:42;10.90;99.90
27707;DHT22;36332;51.384;0.040;2023-11-21T05:15:13;10.90;99.90
27707;DHT22;36332;51.384;0.040;2023-11-21T05:17:41;10.80;99.90
27707;DHT22;36332;51.384;0.040;2023-11-21T05:20:12;10.80;99.90
27707;DHT22;36332;51.384;0.040;2023-11-21T05:22:41;10.80;99.90
27707;DHT22;36332;51.384;0.040;2023-11-21T05:25:09;10.80;99.90
27707;DHT22;36332;51.384;0.040;2023-11-21T05:27:38;10.70;99.90
27707;DHT22;36332;51.384;0.040;2023-11-21T05:30:06;10.80;99.90
27707;DHT22;36332;51.384;0.040;2023-11-21T05:32:36;10.80;99.90
27707;DHT22;36332;51.384;0.040;2023-11-21T05:35:04;10.80;99.90
27707;DHT22;36332;51.384;0.040;2023-11-21T05:37:36;10.70;99.90
27707;DHT22;36332;51.384;0.040;2023-11-21T05:40:07;10.70;99.90
27707;DHT22;36332;51.384;0.040;2023-11-21T05:42:35;10.70;99.90
27707;DHT22;36332;51.384;0.040;2023-11-21T05:45:03;10.60;99.90
27707;DHT22;36332;51.384;0.040;2023-11-21T05:47:40;10.70;99.90
27707;DHT22;36332;51.384;0.040;2023-11-21T05:50:13;10.60;99.90
27707;DHT22;36332;51.384;0.040;2023-11-21T05:52:46;10.60;99.90
27707;DHT22;36332;51.384;0.040;2023-11-21T05:55:14;10.60;99.90
27707;DHT22;36332;51.384;0.040;2023-11-21T05:57:43;10.60;99.90
27707;DHT22;36332;51.384;0.040;2023-11-21T06:00:12;10.60;99.90
27707;DHT22;36332;51.384;0.040;2023-11-21T06:02:50;10.60;99.90
27707;DHT22;36332;51.384;0.040;2023-11-21T06:05:20;10.50;99.90
27707;DHT22;36332;51.384;0.040;2023-11-21T06:07:51;10.50;99.90
27707;DHT22;36332;51.384;0.040;2023-11-21T06:10:21;10.50;99.90
27707;DHT22;36332;51.384;0.040;2023-11-21T06:12:49;10.50;99.90
27707;DHT22;36332;51.384;0.040;2023-11-21T06:15:16;10.50;99.90
27707;DHT22;36332;51.384;0.040;2023-11-21T06:17:46;10.50;99.90
27707;DHT22;36332;51.384;0.040;2023-11-21T06:20:19;10.50;99.90
27707;DHT22;36332;51.384;0.040;2023-11-21T06:22:49;10.50;99.90
27707;DHT22;36332;51.384;0.040;2023-11-21T06:25:17;10.40;99.90
27707;DHT22;36332;51.384;0.040;2023-11-21T06:27:46;10.50;99.90
27707;DHT22;36332;51.384;0.040;2023-11-21T06:30:17;10.40;99.90
27707;DHT22;36332;51.384;0.040;2023-11-21T06:32:47;10.50;99.90
27707;DHT22;36332;51.384;0.040;2023-11-21T06:35:15;10.40;99.90
27707;DHT22;36332;51.384;0.040;2023-11-21T06:40:17;10.40;99.90
27707;DHT22;36332;51.384;0.040;2023-11-21T06:42:48;10.40;99.90
27707;DHT22;36332;51.384;0.040;2023-11-21T06:45:18;10.40;99.90
27707;DHT22;36332;51.384;0.040;2023-11-21T06:47:46;10.40;99.90
27707;DHT22;36332;51.384;0.040;2023-11-21T06:50:14;10.40;99.90
27707;DHT22;36332;51.384;0.040;2023-11-21T06:52:41;10.40;99.90
27707;DHT22;36332;51.384;0.040;2023-11-21T06:55:10;10.30;99.90
27707;DHT22;36332;51.384;0.040;2023-11-21T06:57:38;10.30;99.90
27707;DHT22;36332;51.384;0.040;2023-11-21T07:00:06;10.30;99.90
27707;DHT22;36332;51.384;0.040;2023-11-21T07:02:37;10.30;99.90
27707;DHT22;36332;51.384;0.040;2023-11-21T07:05:06;10.30;99.90
27707;DHT22;36332;51.384;0.040;2023-11-21T07:07:34;10.30;99.90
27707;DHT22;36332;51.384;0.040;2023-11-21T07:10:04;10.30;99.90
27707;DHT22;36332;51.384;0.040;2023-11-21T07:12:33;10.30;99.90
27707;DHT22;36332;51.384;0.040;2023-11-21T07:15:01;10.30;99.90
27707;DHT22;36332;51.384;0.040;2023-11-21T07:17:30;10.30;99.90
27707;DHT22;36332;51.384;0.040;2023-11-21T07:19:58;10.20;99.90
27707;DHT22;36332;51.384;0.040;2023-11-21T07:22:27;10.20;99.90
27707;DHT22;36332;51.384;0.040;2023-11-21T07:24:55;10.20;99.90
27707;DHT22;36332;51.384;0.040;2023-11-21T07:27:24;10.20;99.90
27707;DHT22;36332;51.384;0.040;2023-11-21T07:29:51;10.10;99.90
27707;DHT22;36332;51.384;0.040;2023-11-21T07:32:19;10.10;99.90
27707;DHT22;36332;51.384;0.040;2023-11-21T07:34:46;10.10;99.90
27707;DHT22;36332;51.384;0.040;2023-11-21T07:39:42;10.00;99.90
27707;DHT22;36332;51.384;0.040;2023-11-21T07:42:11;10.00;99.90
27707;DHT22;36332;51.384;0.040;2023-11-21T07:44:39;9.90;99.90
27707;DHT22;36332;51.384;0.040;2023-11-21T07:47:06;10.00;99.90
27707;DHT22;36332;51.384;0.040;2023-11-21T07:49:34;9.90;99.90
27707;DHT22;36332;51.384;0.040;2023-11-21T07:52:01;9.90;99.90
27707;DHT22;36332;51.384;0.040;2023-11-21T07:54:29;9.90;99.90
27707;DHT22;36332;51.384;0.040;2023-11-21T07:56:57;9.90;99.90
27707;DHT22;36332;51.384;0.040;2023-11-21T07:59:25;9.80;99.90
27707;DHT22;36332;51.384;0.040;2023-11-21T08:01:52;9.90;99.90
27707;DHT22;36332;51.384;0.040;2023-11-21T08:04:20;9.80;99.90
27707;DHT22;36332;51.384;0.040;2023-11-21T08:09:16;9.80;99.90
27707;DHT22;36332;51.384;0.040;2023-11-21T08:11:44;9.80;99.90
27707;DHT22;36332;51.384;0.040;2023-11-21T08:14:14;9.90;99.90
27707;DHT22;36332;51.384;0.040;2023-11-21T08:16:42;9.90;99.90
27707;DHT22;36332;51.384;0.040;2023-11-21T08:19:10;9.90;99.90
27707;DHT22;36332;51.384;0.040;2023-11-21T08:21:38;9.90;99.90
27707;DHT22;36332;51.384;0.040;2023-11-21T08:24:07;9.90;99.90
27707;DHT22;36332;51.384;0.040;2023-11-21T08:26:38;9.90;99.90
27707;DHT22;36332;51.384;0.040;2023-11-21T08:29:06;10.00;99.90
27707;DHT22;36332;51.384;0.040;2023-11-21T08:31:34;9.90;99.90
27707;DHT22;36332;51.384;0.040;2023-11-21T08:34:02;9.90;99.90
27707;DHT22;36332;51.384;0.040;2023-11-21T08:36:30;9.90;99.90
27707;DHT22;36332;51.384;0.040;2023-11-21T08:38:59;9.90;99.90
27707;DHT22;36332;51.384;0.040;2023-11-21T08:41:26;10.00;99.90
27707;DHT22;36332;51.384;0.040;2023-11-21T08:43:55;10.00;99.90
27707;DHT22;36332;51.384;0.040;2023-11-21T08:46:23;10.00;99.90
27707;DHT22;36332;51.384;0.040;2023-11-21T08:48:53;10.00;99.90
27707;DHT22;36332;51.384;0.040;2023-11-21T08:51:21;10.00;99.90
27707;DHT22;36332;51.384;0.040;2023-11-21T08:53:48;10.00;99.90
27707;DHT22;36332;51.384;0.040;2023-11-21T08:56:16;10.10;99.90
27707;DHT22;36332;51.384;0.040;2023-11-21T08:58:44;10.10;99.90
27707;DHT22;36332;51.384;0.040;2023-11-21T09:01:12;10.10;99.90
27707;DHT22;36332;51.384;0.040;2023-11-21T09:03:41;10.10;99.90
27707;DHT22;36332;51.384;0.040;2023-11-21T09:06:11;10.10;99.90
27707;DHT22;36332;51.384;0.040;2023-11-21T09:08:39;10.10;99.90
27707;DHT22;36332;51.384;0.040;2023-11-21T09:11:06;10.10;99.90
27707;DHT22;36332;51.384;0.040;2023-11-21T09:13:35;10.20;99.90
27707;DHT22;36332;51.384;0.040;2023-11-21T09:16:04;10.20;99.90
27707;DHT22;36332;51.384;0.040;2023-11-21T09:18:31;10.20;99.90
27707;DHT22;36332;51.384;0.040;2023-11-21T09:21:00;10.10;99.90
27707;DHT22;36332;51.384;0.040;2023-11-21T09:23:28;10.20;99.90
27707;DHT22;36332;51.384;0.040;2023-11-21T09:25:56;10.20;99.90
27707;DHT22;36332;51.384;0.040;2023-11-21T09:28:27;10.20;99.90
27707;DHT22;36332;51.384;0.040;2023-11-21T09:30:55;10.20;99.90
27707;DHT22;36332;51.384;0.040;2023-11-21T09:33:22;10.20;99.90
27707;DHT22;36332;51.384;0.040;2023-11-21T09:35:52;10.20;99.90
27707;DHT22;36332;51.384;0.040;2023-11-21T09:38:20;10.20;99.90
27707;DHT22;36332;51.384;0.040;2023-11-21T09:40:47;10.20;99.90
27707;DHT22;36332;51.384;0.040;2023-11-21T09:43:16;10.30;99.90
27707;DHT22;36332;51.384;0.040;2023-11-21T09:45:46;10.30;99.90
27707;DHT22;36332;51.384;0.040;2023-11-21T09:48:15;10.30;99.90
27707;DHT22;36332;51.384;0.040;2023-11-21T09:50:44;10.40;99.90
27707;DHT22;36332;51.384;0.040;2023-11-21T09:53:20;10.40;99.90
27707;DHT22;36332;51.384;0.040;2023-11-21T09:55:50;10.40;99.90
27707;DHT22;36332;51.384;0.040;2023-11-21T09:58:19;10.40;99.90
27707;DHT22;36332;51.384;0.040;2023-11-21T10:00:49;10.30;99.90
27707;DHT22;36332;51.384;0.040;2023-11-21T10:03:17;10.40;99.90
27707;DHT22;36332;51.384;0.040;2023-11-21T10:05:46;10.50;99.90
27707;DHT22;36332;51.384;0.040;2023-11-21T10:08:15;10.50;99.90
27707;DHT22;36332;51.384;0.040;2023-11-21T10:10:46;10.50;99.90
27707;DHT22;36332;51.384;0.040;2023-11-21T10:13:18;10.60;99.90
27707;DHT22;36332;51.384;0.040;2023-11-21T10:15:51;10.60;99.90
27707;DHT22;36332;51.384;0.040;2023-11-21T10:18:20;10.60;99.90
27707;DHT22;36332;51.384;0.040;2023-11-21T10:20:51;10.70;99.90
27707;DHT22;36332;51.384;0.040;2023-11-21T10:23:22;10.70;99.90
27707;DHT22;36332;51.384;0.040;2023-11-21T10:25:52;10.70;99.90
27707;DHT22;36332;51.384;0.040;2023-11-21T10:28:20;10.70;99.90
27707;DHT22;36332;51.384;0.040;2023-11-21T10:30:49;10.70;99.90
27707;DHT22;36332;51.384;0.040;2023-11-21T10:33:16;10.80;99.90
27707;DHT22;36332;51.384;0.040;2023-11-21T10:35:46;10.80;99.90
27707;DHT22;36332;51.384;0.040;2023-11-21T10:38:22;10.80;99.90
27707;DHT22;36332;51.384;0.040;2023-11-21T10:40:52;10.90;99.90
27707;DHT22;36332;51.384;0.040;2023-11-21T10:43:20;10.90;99.90
27707;DHT22;36332;51.384;0.040;2023-11-21T10:45:51;11.00;99.90
27707;DHT22;36332;51.384;0.040;2023-11-21T10:48:20;11.00;99.90
27707;DHT22;36332;51.384;0.040;2023-11-21T10:50:48;11.00;99.90
27707;DHT22;36332;51.384;0.040;2023-11-21T10:53:15;11.00;99.90
27707;DHT22;36332;51.384;0.040;2023-11-21T10:55:43;11.00;99.90
27707;DHT22;36332;51.384;0.040;2023-11-21T10:58:14;11.00;99.90
27707;DHT22;36332;51.384;0.040;2023-11-21T11:00:43;11.10;99.90
27707;DHT22;36332;51.384;0.040;2023-11-21T11:03:13;11.10;99.90
27707;DHT22;36332;51.384;0.040;2023-11-21T11:05:44;11.10;99.90
27707;DHT22;36332;51.384;0.040;2023-11-21T11:08:22;11.10;99.90
27707;DHT22;36332;51.384;0.040;2023-11-21T11:10:55;11.20;99.90
27707;DHT22;36332;51.384;0.040;2023-11-21T11:13:23;11.20;99.90
27707;DHT22;36332;51.384;0.040;2023-11-21T11:15:57;11.20;99.90
27707;DHT22;36332;51.384;0.040;2023-11-21T11:18:30;11.20;99.90
27707;DHT22;36332;51.384;0.040;2023-11-21T11:21:07;11.20;99.90
27707;DHT22;36332;51.384;0.040;2023-11-21T11:26:20;11.30;99.90
27707;DHT22;36332;51.384;0.040;2023-11-21T11:29:29;11.20;99.90
27707;DHT22;36332;51.384;0.040;2023-11-21T11:35:38;11.30;99.90
27707;DHT22;36332;51.384;0.040;2023-11-21T11:38:09;11.30;99.90
27707;DHT22;36332;51.384;0.040;2023-11-21T11:40:45;11.30;99.90
27707;DHT22;36332;51.384;0.040;2023-11-21T11:43:13;11.40;99.90
27707;DHT22;36332;51.384;0.040;2023-11-21T11:45:51;11.40;99.90
27707;DHT22;36332;51.384;0.040;2023-11-21T11:48:22;11.40;99.90
27707;DHT22;36332;51.384;0.040;2023-11-21T11:53:41;11.40;99.90
27707;DHT22;36332;51.384;0.040;2023-11-21T11:56:24;11.50;99.90
27707;DHT22;36332;51.384;0.040;2023-11-21T11:58:56;11.50;99.90
27707;DHT22;36332;51.384;0.040;2023-11-21T12:01:26;11.50;99.90
27707;DHT22;36332;51.384;0.040;2023-11-21T12:06:50;11.50;99.90
27707;DHT22;36332;51.384;0.040;2023-11-21T12:09:22;11.50;99.90
27707;DHT22;36332;51.384;0.040;2023-11-21T12:11:50;11.60;99.90
27707;DHT22;36332;51.384;0.040;2023-11-21T12:14:18;11.50;99.90
27707;DHT22;36332;51.384;0.040;2023-11-21T12:16:45;11.60;99.90
27707;DHT22;36332;51.384;0.040;2023-11-21T12:19:13;11.60;99.90
27707;DHT22;36332;51.384;0.040;2023-11-21T12:21:41;11.60;99.90
27707;DHT22;36332;51.384;0.040;2023-11-21T12:24:09;11.50;99.90
27707;DHT22;36332;51.384;0.040;2023-11-21T12:26:37;11.50;99.90
27707;DHT22;36332;51.384;0.040;2023-11-21T12:29:04;11.60;99.90
27707;DHT22;36332;51.384;0.040;2023-11-21T12:31:35;11.60;99.90
27707;DHT22;36332;51.384;0.040;2023-11-21T12:34:04;11.60;99.90
27707;DHT22;36332;51.384;0.040;2023-11-21T12:36:34;11.60;99.90
27707;DHT22;36332;51.384;0.040;2023-11-21T12:39:02;11.60;99.90
27707;DHT22;36332;51.384;0.040;2023-11-21T12:41:30;11.60;99.90
27707;DHT22;36332;51.384;0.040;2023-11-21T12:46:26;11.70;99.90
27707;DHT22;36332;51.384;0.040;2023-11-21T12:48:57;11.70;99.90
27707;DHT22;36332;51.384;0.040;2023-11-21T12:51:25;11.60;99.90
27707;DHT22;36332;51.384;0.040;2023-11-21T12:53:53;11.60;99.90
27707;DHT22;36332;51.384;0.040;2023-11-21T12:56:21;11.60;99.90
27707;DHT22;36332;51.384;0.040;2023-11-21T12:58:53;11.60;99.90
27707;DHT22;36332;51.384;0.040;2023-11-21T13:01:25;11.60;99.90
27707;DHT22;36332;51.384;0.040;2023-11-21T13:03:57;11.60;99.90
27707;DHT22;36332;51.384;0.040;2023-11-21T13:06:31;11.60;99.90
27707;DHT22;36332;51.384;0.040;2023-11-21T13:09:02;11.60;99.90
27707;DHT22;36332;51.384;0.040;2023-11-21T13:11:34;11.60;99.90
27707;DHT22;36332;51.384;0.040;2023-11-21T13:14:04;11.60;99.90
27707;DHT22;36332;51.384;0.040;2023-11-21T13:16:31;11.60;99.90
27707;DHT22;36332;51.384;0.040;2023-11-21T13:18:59;11.70;99.90
27707;DHT22;36332;51.384;0.040;2023-11-21T13:21:26;11.70;99.90
27707;DHT22;36332;51.384;0.040;2023-11-21T13:23:54;11.70;99.90
27707;DHT22;36332;51.384;0.040;2023-11-21T13:26:23;11.80;99.90
27707;DHT22;36332;51.384;0.040;2023-11-21T13:28:53;11.80;99.90
27707;DHT22;36332;51.384;0.040;2023-11-21T13:31:21;11.80;99.90
27707;DHT22;36332;51.384;0.040;2023-11-21T13:33:50;11.80;99.90
27707;DHT22;36332;51.384;0.040;2023-11-21T13:36:27;11.80;99.90
27707;DHT22;36332;51.384;0.040;2023-11-21T13:38:59;11.80;99.90
27707;DHT22;36332;51.384;0.040;2023-11-21T13:41:31;11.80;99.90
27707;DHT22;36332;51.384;0.040;2023-11-21T13:44:00;11.80;99.90
27707;DHT22;36332;51.384;0.040;2023-11-21T13:46:44;11.70;99.90
27707;DHT22;36332;51.384;0.040;2023-11-21T13:49:13;11.70;99.90
27707;DHT22;36332;51.384;0.040;2023-11-21T13:51:43;11.60;99.90
27707;DHT22;36332;51.384;0.040;2023-11-21T13:54:13;11.60;99.90
27707;DHT22;36332;51.384;0.040;2023-11-21T13:56:41;11.70;99.90
27707;DHT22;36332;51.384;0.040;2023-11-21T13:59:12;11.60;99.90
27707;DHT22;36332;51.384;0.040;2023-11-21T14:01:52;11.60;99.90
27707;DHT22;36332;51.384;0.040;2023-11-21T14:04:21;11.60;99.90
27707;DHT22;36332;51.384;0.040;2023-11-21T14:06:58;11.50;99.90
27707;DHT22;36332;51.384;0.040;2023-11-21T14:09:29;11.50;99.90
27707;DHT22;36332;51.384;0.040;2023-11-21T14:12:11;11.50;99.90
27707;DHT22;36332;51.384;0.040;2023-11-21T14:14:42;11.50;99.90
27707;DHT22;36332;51.384;0.040;2023-11-21T14:17:11;11.40;99.90
27707;DHT22;36332;51.384;0.040;2023-11-21T14:19:39;11.40;99.90
27707;DHT22;36332;51.384;0.040;2023-11-21T14:22:11;11.40;99.90
27707;DHT22;36332;51.384;0.040;2023-11-21T14:24:39;11.40;99.90
27707;DHT22;36332;51.384;0.040;2023-11-21T14:27:14;11.30;99.90
27707;DHT22;36332;51.384;0.040;2023-11-21T14:29:43;11.30;99.90
27707;DHT22;36332;51.384;0.040;2023-11-21T14:32:12;11.20;99.90
27707;DHT22;36332;51.384;0.040;2023-11-21T14:34:41;11.20;99.90
27707;DHT22;36332;51.384;0.040;2023-11-21T14:37:13;11.20;99.90
27707;DHT22;36332;51.384;0.040;2023-11-21T14:39:41;11.10;99.90
27707;DHT22;36332;51.384;0.040;2023-11-21T14:42:13;11.20;99.90
27707;DHT22;36332;51.384;0.040;2023-11-21T14:44:43;11.20;99.90
27707;DHT22;36332;51.384;0.040;2023-11-21T14:47:11;11.10;99.90
27707;DHT22;36332;51.384;0.040;2023-11-21T14:49:44;11.10;99.90
27707;DHT22;36332;51.384;0.040;2023-11-21T14:52:20;11.10;99.90
27707;DHT22;36332;51.384;0.040;2023-11-21T14:55:03;11.00;99.90
27707;DHT22;36332;51.384;0.040;2023-11-21T14:57:49;11.00;99.90
27707;DHT22;36332;51.384;0.040;2023-11-21T15:00:19;11.00;99.90
27707;DHT22;36332;51.384;0.040;2023-11-21T15:03:00;9.70;99.90
27707;DHT22;36332;51.384;0.040;2023-11-21T15:05:28;11.00;99.90
27707;DHT22;36332;51.384;0.040;2023-11-21T15:07:56;11.00;99.90
27707;DHT22;36332;51.384;0.040;2023-11-21T15:10:41;11.00;99.90
27707;DHT22;36332;51.384;0.040;2023-11-21T15:13:20;11.00;99.90
27707;DHT22;36332;51.384;0.040;2023-11-21T15:15:50;11.00;99.90
27707;DHT22;36332;51.384;0.040;2023-11-21T15:18:20;11.00;99.90
27707;DHT22;36332;51.384;0.040;2023-11-21T15:20:48;11.00;99.90
27707;DHT22;36332;51.384;0.040;2023-11-21T15:23:15;10.90;99.90
27707;DHT22;36332;51.384;0.040;2023-11-21T15:25:46;10.80;99.90
27707;DHT22;36332;51.384;0.040;2023-11-21T15:28:13;10.80;99.90
27707;DHT22;36332;51.384;0.040;2023-11-21T15:30:41;10.70;99.90
27707;DHT22;36332;51.384;0.040;2023-11-21T15:33:09;10.70;99.90
27707;DHT22;36332;51.384;0.040;2023-11-21T15:35:37;10.70;99.90
27707;DHT22;36332;51.384;0.040;2023-11-21T15:38:09;10.70;99.90
27707;DHT22;36332;51.384;0.040;2023-11-21T15:40:36;10.60;99.90
27707;DHT22;36332;51.384;0.040;2023-11-21T15:43:05;10.60;99.90
27707;DHT22;36332;51.384;0.040;2023-11-21T15:45:35;10.50;99.90
27707;DHT22;36332;51.384;0.040;2023-11-21T15:48:03;10.50;99.90
27707;DHT22;36332;51.384;0.040;2023-11-21T15:50:31;10.50;99.90
27707;DHT22;36332;51.384;0.040;2023-11-21T15:52:59;10.50;99.90
27707;DHT22;36332;51.384;0.040;2023-11-21T15:55:27;10.50;99.90
27707;DHT22;36332;51.384;0.040;2023-11-21T15:57:55;10.40;99.90
27707;DHT22;36332;51.384;0.040;2023-11-21T16:00:23;10.50;99.90
27707;DHT22;36332;51.384;0.040;2023-11-21T16:02:51;10.50;99.90
27707;DHT22;36332;51.384;0.040;2023-11-21T16:05:22;10.50;99.90
27707;DHT22;36332;51.384;0.040;2023-11-21T16:07:53;10.50;99.90
27707;DHT22;36332;51.384;0.040;2023-11-21T16:10:22;10.40;99.90